createdAt,value
2019-03-24T00:00:55.973Z,35.65
2019-03-24T00:03:24.423Z,26.33
2019-03-24T00:05:52.877Z,35.35
2019-03-24T00:08:21.327Z,24.72
2019-03-24T00:10:49.853Z,34.33
2019-03-24T00:13:18.297Z,41.90
2019-03-24T00:15:46.755Z,33.50
2019-03-24T00:18:15.264Z,29.35
2019-03-24T00:20:43.718Z,28.75
2019-03-24T00:23:12.185Z,26.50
2019-03-24T00:25:40.619Z,22.05
2019-03-24T00:28:09.059Z,38.48
2019-03-24T00:30:37.514Z,49.73
2019-03-24T00:33:05.968Z,30.85
2019-03-24T00:35:34.432Z,39.80
2019-03-24T00:38:02.906Z,31.42
2019-03-24T00:40:31.351Z,30.27
2019-03-24T00:42:59.799Z,42.40
2019-03-24T00:45:36.484Z,32.55
2019-03-24T00:47:58.419Z,32.15
2019-03-24T00:50:26.869Z,22.70
2019-03-24T00:52:55.316Z,32.33
2019-03-24T00:55:23.778Z,28.90
2019-03-24T00:57:52.214Z,29.70
2019-03-24T01:00:23.731Z,34.85
2019-03-24T01:02:52.195Z,30.05
2019-03-24T01:05:20.710Z,30.23
2019-03-24T01:07:49.156Z,21.97
2019-03-24T01:10:17.660Z,36.13
2019-03-24T01:12:46.143Z,24.67
2019-03-24T01:15:14.583Z,30.82
2019-03-24T01:17:43.031Z,39.05
2019-03-24T01:20:11.560Z,24.50
2019-03-24T01:22:40.008Z,32.48
2019-03-24T01:25:08.811Z,19.75
2019-03-24T01:27:37.271Z,29.75
2019-03-24T01:30:07.689Z,35.38
2019-03-24T01:32:36.214Z,30.55
2019-03-24T01:35:06.307Z,35.43
2019-03-24T01:37:35.103Z,35.50
2019-03-24T01:40:04.620Z,29.75
2019-03-24T01:42:33.071Z,35.17
2019-03-24T01:45:01.523Z,37.17
2019-03-24T01:47:29.987Z,30.35
2019-03-24T01:49:58.492Z,37.63
2019-03-24T01:52:26.939Z,24.35
2019-03-24T01:54:55.392Z,39.27
2019-03-24T01:57:23.836Z,42.65
2019-03-24T01:59:52.288Z,25.60
2019-03-24T02:02:20.750Z,32.03
2019-03-24T02:04:49.270Z,40.58
2019-03-24T02:07:17.746Z,36.45
2019-03-24T02:09:46.215Z,30.55
2019-03-24T02:12:14.676Z,38.90
2019-03-24T02:14:43.140Z,34.85
2019-03-24T02:17:11.583Z,38.95
2019-03-24T02:19:40.049Z,40.20
2019-03-24T02:22:08.582Z,38.08
2019-03-24T02:24:37.099Z,50.60
2019-03-24T02:27:05.617Z,32.48
2019-03-24T02:29:34.150Z,31.75
2019-03-24T02:32:02.653Z,33.78
2019-03-24T02:34:31.210Z,31.57
2019-03-24T02:36:59.711Z,29.70
2019-03-24T02:39:28.220Z,38.98
2019-03-24T02:41:56.678Z,26.87
2019-03-24T02:44:25.141Z,32.00
2019-03-24T02:46:53.672Z,27.58
2019-03-24T02:49:22.138Z,38.00
2019-03-24T02:51:50.653Z,38.42
2019-03-24T02:54:19.120Z,22.85
2019-03-24T02:56:47.623Z,43.40
2019-03-24T02:59:16.143Z,33.63
2019-03-24T03:01:44.593Z,34.85
2019-03-24T03:04:13.036Z,26.90
2019-03-24T03:06:41.540Z,32.80
2019-03-24T03:09:10.057Z,24.40
2019-03-24T03:11:38.515Z,35.63
2019-03-24T03:14:06.975Z,28.23
2019-03-24T03:16:38.624Z,27.90
2019-03-24T03:19:05.665Z,35.05
2019-03-24T03:21:34.125Z,28.45
2019-03-24T03:24:02.576Z,28.80
2019-03-24T03:26:31.026Z,28.27
2019-03-24T03:28:59.485Z,44.80
2019-03-24T03:31:27.957Z,31.50
2019-03-24T03:33:56.491Z,29.92
2019-03-24T03:36:24.992Z,26.90
2019-03-24T03:38:53.474Z,33.88
2019-03-24T03:41:22.002Z,25.35
2019-03-24T03:43:50.533Z,29.80
2019-03-24T03:46:19.058Z,26.75
2019-03-24T03:48:47.539Z,27.10
2019-03-24T03:51:15.989Z,22.20
2019-03-24T03:53:44.442Z,20.60
2019-03-24T03:56:12.894Z,32.77
2019-03-24T03:58:41.408Z,28.00
2019-03-24T04:01:09.871Z,25.73
2019-03-24T04:03:38.408Z,34.98
2019-03-24T04:06:06.953Z,27.77
2019-03-24T04:08:35.471Z,23.90
2019-03-24T04:11:03.907Z,35.25
2019-03-24T04:13:32.601Z,34.60
2019-03-24T04:16:01.076Z,32.20
2019-03-24T04:18:29.517Z,28.15
2019-03-24T04:20:57.958Z,32.17
2019-03-24T04:23:26.437Z,21.75
2019-03-24T04:25:54.888Z,28.40
2019-03-24T04:28:23.334Z,23.70
2019-03-24T04:30:51.781Z,40.48
2019-03-24T04:33:20.230Z,37.55
2019-03-24T04:35:48.687Z,33.38
2019-03-24T04:38:17.415Z,24.72
2019-03-24T04:40:45.874Z,33.73
2019-03-24T04:43:14.337Z,27.90
2019-03-24T04:45:42.783Z,32.05
2019-03-24T04:48:11.251Z,42.33
2019-03-24T04:50:39.696Z,22.17
2019-03-24T04:53:08.135Z,29.92
2019-03-24T04:55:36.594Z,35.10
2019-03-24T04:58:05.037Z,35.92
2019-03-24T05:00:35.642Z,37.20
2019-03-24T05:03:04.171Z,29.75
2019-03-24T05:05:32.783Z,21.90
2019-03-24T05:08:01.231Z,21.60
2019-03-24T05:10:30.143Z,22.55
2019-03-24T05:12:58.593Z,21.75
2019-03-24T05:15:27.042Z,25.43
2019-03-24T05:17:55.637Z,28.47
2019-03-24T05:20:24.070Z,27.52
2019-03-24T05:22:52.547Z,32.35
2019-03-24T05:25:20.995Z,21.75
2019-03-24T05:27:49.466Z,28.70
2019-03-24T05:30:17.948Z,23.02
2019-03-24T05:32:46.392Z,19.70
2019-03-24T05:35:14.868Z,22.67
2019-03-24T05:37:43.312Z,26.62
2019-03-24T05:40:11.778Z,21.17
2019-03-24T05:42:40.241Z,23.75
2019-03-24T05:45:09.123Z,44.83
2019-03-24T05:47:37.693Z,34.73
2019-03-24T05:50:08.763Z,20.25
2019-03-24T05:52:37.247Z,21.00
2019-03-24T05:55:07.237Z,26.33
2019-03-24T05:57:35.720Z,26.55
2019-03-24T06:00:06.815Z,30.12
2019-03-24T06:02:35.331Z,29.67
2019-03-24T06:05:04.528Z,29.12
2019-03-24T06:07:32.987Z,27.97
2019-03-24T06:10:01.424Z,36.50
2019-03-24T06:12:29.892Z,33.88
2019-03-24T06:14:58.335Z,35.75
2019-03-24T06:17:26.910Z,29.95
2019-03-24T06:19:55.417Z,38.80
2019-03-24T06:22:23.871Z,27.00
2019-03-24T06:24:52.336Z,48.28
2019-03-24T06:27:20.783Z,33.58
2019-03-24T06:29:49.239Z,43.95
2019-03-24T06:32:17.715Z,34.43
2019-03-24T06:34:46.170Z,37.40
2019-03-24T06:37:14.611Z,35.48
2019-03-24T06:39:43.078Z,29.90
2019-03-24T06:42:11.603Z,32.63
2019-03-24T06:44:40.072Z,23.20
2019-03-24T06:47:08.513Z,31.73
2019-03-24T06:49:36.963Z,33.95
2019-03-24T06:52:05.416Z,29.00
2019-03-24T06:54:33.861Z,36.33
2019-03-24T06:57:02.319Z,21.77
2019-03-24T06:59:30.766Z,33.33
2019-03-24T07:01:59.220Z,37.67
2019-03-24T07:04:27.667Z,28.02
2019-03-24T07:06:56.115Z,25.82
2019-03-24T07:09:24.555Z,18.15
2019-03-24T07:11:53.021Z,36.90
2019-03-24T07:14:21.459Z,37.13
2019-03-24T07:16:49.938Z,38.83
2019-03-24T07:19:18.380Z,32.60
2019-03-24T07:21:46.835Z,34.23
2019-03-24T07:24:15.301Z,32.15
2019-03-24T07:26:43.759Z,34.95
2019-03-24T07:29:12.212Z,33.45
2019-03-24T07:31:40.672Z,31.30
2019-03-24T07:34:09.111Z,32.42
2019-03-24T07:36:37.562Z,28.55
2019-03-24T07:39:07.650Z,32.78
2019-03-24T07:41:36.126Z,30.90
2019-03-24T07:44:04.631Z,35.40
2019-03-24T07:46:33.090Z,24.32
2019-03-24T07:49:01.547Z,21.30
2019-03-24T07:51:30.009Z,26.15
2019-03-24T07:53:58.457Z,32.63
2019-03-24T07:56:26.904Z,35.98
2019-03-24T07:58:55.375Z,33.02
2019-03-24T08:01:23.843Z,31.80
2019-03-24T08:03:52.317Z,28.50
2019-03-24T08:06:20.774Z,26.10
2019-03-24T08:08:49.219Z,25.45
2019-03-24T08:11:17.701Z,31.82
2019-03-24T08:13:53.695Z,33.08
2019-03-24T08:16:16.336Z,25.90
2019-03-24T08:18:44.787Z,39.35
2019-03-24T08:21:13.231Z,32.03
2019-03-24T08:23:41.686Z,27.82
2019-03-24T08:26:10.148Z,28.47
2019-03-24T08:28:38.599Z,28.17
2019-03-24T08:31:07.075Z,36.17
2019-03-24T08:33:35.535Z,27.60
2019-03-24T08:36:04.052Z,40.52
2019-03-24T08:38:32.535Z,26.77
2019-03-24T08:41:01.045Z,33.67
2019-03-24T08:43:29.495Z,34.63
2019-03-24T08:45:57.964Z,39.30
2019-03-24T08:48:26.406Z,19.23
2019-03-24T08:50:54.867Z,37.60
2019-03-24T08:53:23.486Z,30.88
2019-03-24T08:55:51.950Z,33.05
2019-03-24T08:58:20.443Z,27.52
2019-03-24T09:00:48.900Z,28.65
2019-03-24T09:03:17.356Z,26.75
2019-03-24T09:05:45.819Z,27.98
2019-03-24T09:08:14.263Z,31.48
2019-03-24T09:10:42.733Z,31.12
2019-03-24T09:13:11.178Z,29.57
2019-03-24T09:15:39.640Z,36.28
2019-03-24T09:18:08.104Z,28.60
2019-03-24T09:20:41.665Z,30.52
2019-03-24T09:23:06.733Z,23.45
2019-03-24T09:25:35.269Z,22.77
2019-03-24T09:28:03.813Z,24.50
2019-03-24T09:30:37.226Z,22.48
2019-03-24T09:33:05.868Z,28.10
2019-03-24T09:35:34.404Z,18.92
2019-03-24T09:38:02.936Z,40.25
2019-03-24T09:40:35.444Z,28.40
2019-03-24T09:43:05.287Z,25.12
2019-03-24T09:45:33.917Z,22.98
2019-03-24T09:48:02.674Z,20.97
2019-03-24T09:50:31.205Z,26.33
2019-03-24T09:52:59.723Z,26.77
2019-03-24T09:55:28.185Z,24.07
2019-03-24T09:57:56.724Z,25.70
2019-03-24T10:00:25.246Z,24.63
2019-03-24T10:02:53.696Z,22.60
2019-03-24T10:05:22.159Z,31.52
2019-03-24T10:07:50.719Z,21.10
2019-03-24T10:10:19.185Z,24.67
2019-03-24T10:12:47.627Z,26.73
2019-03-24T10:15:16.079Z,27.55
2019-03-24T10:17:46.562Z,22.30
2019-03-24T10:22:42.784Z,26.25
2019-03-24T10:25:11.247Z,24.45
2019-03-24T10:27:39.795Z,19.35
2019-03-24T10:30:08.851Z,20.48
2019-03-24T10:32:37.572Z,31.90
2019-03-24T10:35:07.808Z,30.62
2019-03-24T10:37:36.273Z,19.55
2019-03-24T10:40:07.167Z,21.07
2019-03-24T10:42:35.622Z,20.48
2019-03-24T10:45:05.708Z,31.62
2019-03-24T10:47:34.150Z,30.08
2019-03-24T10:50:02.791Z,33.25
2019-03-24T10:52:31.236Z,24.80
2019-03-24T10:54:59.699Z,22.20
2019-03-24T10:57:28.188Z,19.25
2019-03-24T10:59:56.635Z,24.40
2019-03-24T11:02:25.091Z,16.30
2019-03-24T11:04:53.555Z,24.72
2019-03-24T11:07:22.084Z,19.30
2019-03-24T11:09:50.569Z,23.98
2019-03-24T11:12:19.057Z,18.77
2019-03-24T11:14:48.578Z,21.82
2019-03-24T11:17:17.107Z,20.00
2019-03-24T11:19:45.580Z,24.65
2019-03-24T11:22:14.156Z,24.60
2019-03-24T11:24:42.627Z,21.68
2019-03-24T11:27:11.084Z,23.10
2019-03-24T11:29:39.628Z,22.27
2019-03-24T11:32:08.163Z,18.92
2019-03-24T11:34:36.627Z,18.27
2019-03-24T11:37:05.072Z,18.45
2019-03-24T11:39:33.550Z,14.45
2019-03-24T11:42:02.007Z,20.02
2019-03-24T11:44:30.453Z,25.05
2019-03-24T11:46:58.923Z,17.95
2019-03-24T11:49:27.376Z,13.78
2019-03-24T11:51:55.839Z,18.30
2019-03-24T11:54:24.288Z,11.57
2019-03-24T11:56:52.757Z,20.17
2019-03-24T11:59:21.200Z,16.17
2019-03-24T12:01:49.731Z,14.05
2019-03-24T12:04:18.203Z,19.12
2019-03-24T12:06:46.700Z,20.85
2019-03-24T12:09:15.160Z,22.00
2019-03-24T12:11:43.865Z,17.15
2019-03-24T12:14:12.334Z,16.85
2019-03-24T12:16:40.855Z,19.30
2019-03-24T12:19:09.339Z,11.70
2019-03-24T12:21:37.788Z,15.13
2019-03-24T12:24:06.261Z,11.75
2019-03-24T12:26:34.704Z,14.03
2019-03-24T12:29:03.199Z,16.07
2019-03-24T12:31:31.681Z,15.30
2019-03-24T12:34:00.142Z,14.85
2019-03-24T12:36:28.596Z,13.00
2019-03-24T12:38:57.062Z,11.40
2019-03-24T12:41:25.626Z,12.28
2019-03-24T12:43:54.071Z,10.23
2019-03-24T12:46:22.518Z,11.40
2019-03-24T12:48:50.979Z,12.33
2019-03-24T12:51:19.427Z,10.95
2019-03-24T12:53:47.901Z,14.73
2019-03-24T12:56:16.372Z,11.80
2019-03-24T12:58:44.843Z,11.18
2019-03-24T13:01:13.293Z,11.30
2019-03-24T13:03:41.764Z,12.43
2019-03-24T13:06:10.227Z,11.33
2019-03-24T13:08:38.711Z,11.83
2019-03-24T13:11:07.159Z,8.67
2019-03-24T13:13:35.607Z,11.38
2019-03-24T13:16:04.140Z,9.70
2019-03-24T13:18:32.591Z,10.00
2019-03-24T13:21:01.039Z,11.18
2019-03-24T13:23:29.495Z,22.07
2019-03-24T13:25:57.985Z,10.00
2019-03-24T13:28:26.497Z,11.28
2019-03-24T13:30:54.955Z,11.83
2019-03-24T13:33:23.412Z,12.88
2019-03-24T13:35:53.493Z,9.40
2019-03-24T13:38:21.944Z,8.55
2019-03-24T13:40:50.398Z,12.25
2019-03-24T13:43:18.860Z,5.33
2019-03-24T13:45:47.377Z,10.95
2019-03-24T13:48:15.859Z,13.25
2019-03-24T13:50:44.329Z,12.05
2019-03-24T13:53:15.644Z,10.70
2019-03-24T13:55:44.231Z,11.60
2019-03-24T13:58:12.809Z,10.60
2019-03-24T14:00:41.295Z,11.40
2019-03-24T14:03:09.758Z,12.43
2019-03-24T14:05:38.219Z,10.82
2019-03-24T14:08:06.682Z,11.08
2019-03-24T14:10:35.122Z,16.42
2019-03-24T14:13:03.584Z,10.70
2019-03-24T14:15:32.048Z,17.48
2019-03-24T14:18:00.498Z,16.52
2019-03-24T14:20:28.964Z,9.48
2019-03-24T14:22:57.425Z,11.97
2019-03-24T14:25:25.894Z,12.60
2019-03-24T14:27:54.345Z,13.03
2019-03-24T14:30:28.664Z,10.08
2019-03-24T14:32:57.124Z,12.43
2019-03-24T14:35:25.751Z,12.50
2019-03-24T14:37:54.209Z,12.18
2019-03-24T14:40:22.646Z,13.83
2019-03-24T14:42:51.111Z,20.70
2019-03-24T14:45:19.559Z,19.75
2019-03-24T14:47:48.015Z,17.67
2019-03-24T14:50:16.672Z,15.65
2019-03-24T14:52:45.136Z,16.52
2019-03-24T14:55:13.584Z,14.98
2019-03-24T14:57:42.085Z,19.50
2019-03-24T15:00:10.782Z,18.15
2019-03-24T15:02:40.875Z,13.05
2019-03-24T15:05:09.991Z,14.00
2019-03-24T15:07:38.507Z,17.73
2019-03-24T15:10:07.572Z,19.05
2019-03-24T15:12:36.040Z,13.58
2019-03-24T15:15:07.411Z,19.57
2019-03-24T15:17:40.696Z,18.60
2019-03-24T15:20:09.200Z,22.42
2019-03-24T15:22:37.666Z,14.90
2019-03-24T15:25:06.785Z,15.32
2019-03-24T15:27:35.239Z,12.63
2019-03-24T15:30:08.571Z,19.02
2019-03-24T15:32:40.412Z,17.65
2019-03-24T15:35:09.024Z,16.12
2019-03-24T15:37:37.533Z,18.20
2019-03-24T15:40:07.307Z,15.03
2019-03-24T15:42:35.781Z,18.35
2019-03-24T15:45:07.062Z,15.30
2019-03-24T15:47:35.536Z,26.10
2019-03-24T15:50:07.057Z,20.27
2019-03-24T15:52:35.545Z,23.98
2019-03-24T15:55:06.355Z,25.37
2019-03-24T15:57:34.824Z,23.70
2019-03-24T16:00:04.331Z,28.92
2019-03-24T16:02:32.853Z,19.93
2019-03-24T16:05:01.313Z,27.70
2019-03-24T16:07:29.774Z,23.92
2019-03-24T16:09:58.231Z,20.17
2019-03-24T16:12:26.686Z,26.20
2019-03-24T16:14:55.259Z,22.42
2019-03-24T16:17:23.991Z,26.55
2019-03-24T16:19:52.591Z,20.95
2019-03-24T16:22:21.051Z,19.02
2019-03-24T16:24:49.652Z,22.35
2019-03-24T16:27:18.120Z,14.60
2019-03-24T16:29:46.586Z,20.90
2019-03-24T16:32:15.096Z,17.90
2019-03-24T16:34:43.571Z,25.15
2019-03-24T16:37:12.092Z,27.52
2019-03-24T16:39:40.594Z,20.02
2019-03-24T16:42:09.086Z,17.42
2019-03-24T16:44:37.559Z,28.12
2019-03-24T16:47:07.660Z,18.50
2019-03-24T16:49:36.191Z,19.95
2019-03-24T16:52:04.635Z,22.35
2019-03-24T16:54:33.123Z,21.75
2019-03-24T16:57:01.587Z,21.62
2019-03-24T16:59:30.143Z,21.23
2019-03-24T17:01:58.686Z,25.57
2019-03-24T17:04:27.127Z,23.98
2019-03-24T17:06:55.602Z,20.45
2019-03-24T17:09:24.053Z,16.12
2019-03-24T17:11:52.519Z,20.90
2019-03-24T17:14:20.968Z,27.85
2019-03-24T17:16:49.536Z,18.57
2019-03-24T17:19:17.996Z,13.40
2019-03-24T17:21:50.164Z,21.15
2019-03-24T17:24:16.638Z,25.48
2019-03-24T17:26:45.191Z,19.83
2019-03-24T17:29:13.670Z,18.55
2019-03-24T17:31:42.112Z,16.23
2019-03-24T17:34:10.572Z,18.20
2019-03-24T17:36:39.169Z,21.03
2019-03-24T17:39:08.171Z,29.80
2019-03-24T17:41:36.616Z,20.53
2019-03-24T17:44:12.885Z,19.48
2019-03-24T17:46:41.683Z,18.50
2019-03-24T17:49:10.140Z,23.60
2019-03-24T17:51:38.675Z,14.60
2019-03-24T17:54:07.154Z,18.80
2019-03-24T17:56:35.647Z,22.17
2019-03-24T17:59:04.243Z,23.95
2019-03-24T18:01:32.728Z,27.93
2019-03-24T18:04:01.231Z,22.25
2019-03-24T18:06:29.759Z,22.55
2019-03-24T18:08:58.277Z,14.25
2019-03-24T18:11:26.723Z,17.30
2019-03-24T18:13:55.188Z,14.95
2019-03-24T18:16:23.640Z,22.13
2019-03-24T18:18:52.111Z,17.50
2019-03-24T18:21:20.580Z,16.90
2019-03-24T18:23:49.096Z,19.82
2019-03-24T18:26:17.573Z,21.97
2019-03-24T18:28:46.028Z,14.03
2019-03-24T18:31:14.487Z,12.85
2019-03-24T18:33:42.936Z,13.65
2019-03-24T18:36:12.924Z,18.40
2019-03-24T18:38:41.708Z,10.32
2019-03-24T18:41:10.195Z,7.60
2019-03-24T18:43:38.684Z,16.73
2019-03-24T18:46:07.174Z,13.13
2019-03-24T18:48:35.653Z,13.80
2019-03-24T18:51:04.140Z,11.15
2019-03-24T18:53:32.595Z,12.90
2019-03-24T18:56:01.072Z,18.95
2019-03-24T18:58:31.898Z,12.85
2019-03-24T19:00:59.765Z,15.45
2019-03-24T19:03:28.208Z,10.23
2019-03-24T19:05:56.658Z,7.97
2019-03-24T19:08:25.170Z,14.73
2019-03-24T19:10:53.620Z,17.25
2019-03-24T19:13:22.079Z,7.37
2019-03-24T19:15:50.525Z,12.35
2019-03-24T19:18:19.043Z,14.50
2019-03-24T19:20:47.487Z,8.88
2019-03-24T19:23:15.962Z,15.18
2019-03-24T19:25:44.453Z,13.88
2019-03-24T19:28:13.007Z,10.93
2019-03-24T19:30:41.561Z,9.33
2019-03-24T19:33:10.079Z,14.20
2019-03-24T19:35:38.720Z,9.73
2019-03-24T19:38:07.160Z,10.35
2019-03-24T19:40:36.056Z,11.73
2019-03-24T19:43:04.698Z,10.10
2019-03-24T19:45:33.348Z,17.52
2019-03-24T19:48:01.855Z,14.93
2019-03-24T19:50:30.366Z,11.15
2019-03-24T19:52:58.822Z,12.18
2019-03-24T19:55:27.257Z,8.30
2019-03-24T19:57:55.766Z,9.90
2019-03-24T20:00:24.259Z,11.63
2019-03-24T20:02:52.751Z,7.60
2019-03-24T20:05:21.277Z,12.88
2019-03-24T20:07:49.756Z,16.52
2019-03-24T20:10:18.231Z,17.45
2019-03-24T20:12:46.838Z,13.95
2019-03-24T20:15:15.507Z,16.80
2019-03-24T20:17:43.979Z,15.18
2019-03-24T20:20:12.858Z,14.75
2019-03-24T20:22:41.347Z,16.20
2019-03-24T20:25:10.207Z,14.40
2019-03-24T20:27:38.658Z,16.32
2019-03-24T20:30:11.451Z,11.33
2019-03-24T20:32:39.927Z,16.57
2019-03-24T20:35:08.674Z,15.30
2019-03-24T20:37:37.119Z,16.02
2019-03-24T20:40:06.317Z,13.72
2019-03-24T20:42:34.787Z,15.57
2019-03-24T20:45:03.639Z,14.35
2019-03-24T20:47:32.179Z,19.45
2019-03-24T20:50:00.652Z,15.85
2019-03-24T20:52:29.098Z,16.48
2019-03-24T20:54:57.544Z,9.28
2019-03-24T20:57:26.010Z,16.80
2019-03-24T20:59:54.585Z,10.65
2019-03-24T21:02:23.040Z,12.60
2019-03-24T21:04:51.472Z,19.57
2019-03-24T21:07:19.942Z,19.02
2019-03-24T21:09:49.260Z,12.40
2019-03-24T21:12:17.724Z,11.50
2019-03-24T21:14:46.247Z,13.72
2019-03-24T21:17:15.007Z,13.05
2019-03-24T21:19:43.701Z,17.70
2019-03-24T21:22:12.255Z,12.00
2019-03-24T21:24:40.734Z,15.75
2019-03-24T21:27:09.299Z,15.65
2019-03-24T21:29:37.760Z,12.33
2019-03-24T21:32:06.215Z,20.45
2019-03-24T21:34:34.679Z,13.95
2019-03-24T21:37:03.125Z,11.38
2019-03-24T21:39:31.588Z,10.68
2019-03-24T21:42:00.035Z,9.55
2019-03-24T21:44:28.516Z,10.65
2019-03-24T21:46:56.984Z,12.23
2019-03-24T21:49:25.455Z,16.48
2019-03-24T21:51:53.964Z,17.10
2019-03-24T21:54:22.425Z,17.42
2019-03-24T21:56:50.898Z,16.23
2019-03-24T21:59:19.407Z,12.95
2019-03-24T22:01:47.853Z,14.13
2019-03-24T22:04:16.302Z,13.43
2019-03-24T22:06:44.755Z,23.35
2019-03-24T22:09:13.211Z,16.97
2019-03-24T22:11:41.651Z,19.17
2019-03-24T22:14:10.122Z,16.45
2019-03-24T22:16:38.567Z,15.78
2019-03-24T22:19:07.018Z,15.68
2019-03-24T22:21:37.131Z,15.86
2019-03-24T22:24:05.687Z,18.83
2019-03-24T22:26:34.200Z,14.47
2019-03-24T22:29:02.640Z,14.47
2019-03-24T22:31:31.104Z,12.43
2019-03-24T22:33:59.562Z,11.22
2019-03-24T22:36:28.060Z,22.32
2019-03-24T22:38:56.578Z,15.68
2019-03-24T22:41:25.054Z,13.75
2019-03-24T22:43:53.563Z,18.05
2019-03-24T22:46:22.027Z,16.23
2019-03-24T22:48:50.478Z,11.60
2019-03-24T22:51:18.921Z,12.73
2019-03-24T22:53:47.420Z,13.03
2019-03-24T22:56:15.952Z,11.08
2019-03-24T22:58:44.495Z,8.93
2019-03-24T23:01:14.781Z,21.52
2019-03-24T23:03:43.224Z,12.23
2019-03-24T23:06:11.676Z,18.98
2019-03-24T23:08:40.187Z,15.10
2019-03-24T23:11:08.672Z,14.68
2019-03-24T23:13:37.175Z,17.92
2019-03-24T23:16:05.622Z,19.77
2019-03-24T23:18:34.336Z,18.98
2019-03-24T23:21:02.824Z,21.33
2019-03-24T23:23:31.310Z,18.20
2019-03-24T23:25:59.765Z,22.10
2019-03-24T23:28:28.219Z,28.32
2019-03-24T23:30:56.665Z,16.50
2019-03-24T23:33:25.115Z,25.10
2019-03-24T23:35:53.591Z,20.40
2019-03-24T23:38:22.087Z,17.50
2019-03-24T23:40:50.542Z,21.65
2019-03-24T23:43:18.987Z,14.63
2019-03-24T23:45:47.451Z,17.87
2019-03-24T23:48:15.903Z,18.92
2019-03-24T23:50:44.353Z,9.08
2019-03-24T23:53:12.808Z,20.85
2019-03-24T23:55:41.250Z,16.60
2019-03-24T23:58:09.710Z,19.50
